createdAt,value
2018-07-12T00:04:49.435Z,93.20
2018-07-12T00:09:42.958Z,93.20
2018-07-12T00:19:32.175Z,93.40
2018-07-12T00:29:19.457Z,93.30
2018-07-12T00:34:13.250Z,93.30
2018-07-12T00:39:06.881Z,93.40
2018-07-12T00:44:01.176Z,93.40
2018-07-12T00:48:54.865Z,93.60
2018-07-12T00:53:48.575Z,93.50
2018-07-12T00:58:42.007Z,93.60
2018-07-12T01:03:36.179Z,93.60
2018-07-12T01:08:29.632Z,93.20
2018-07-12T01:13:24.458Z,93.40
2018-07-12T01:18:18.041Z,93.20
2018-07-12T01:23:11.971Z,93.20
2018-07-12T01:28:05.514Z,93.40
2018-07-12T01:32:59.594Z,93.50
2018-07-12T01:37:53.817Z,93.20
2018-07-12T01:42:47.388Z,93.20
2018-07-12T01:47:41.761Z,93.20
2018-07-12T01:52:35.376Z,93.30
2018-07-12T01:57:29.190Z,93.60
2018-07-12T02:02:22.633Z,93.70
2018-07-12T02:07:16.441Z,93.50
2018-07-12T02:12:10.428Z,93.40
2018-07-12T02:17:06.814Z,93.20
2018-07-12T02:22:00.243Z,93.50
2018-07-12T02:26:53.710Z,93.70
2018-07-12T02:31:47.326Z,93.60
2018-07-12T02:36:41.508Z,93.80
2018-07-12T02:41:34.937Z,94.10
2018-07-12T02:46:28.416Z,94.10
2018-07-12T02:51:22.219Z,94.00
2018-07-12T02:56:16.263Z,93.50
2018-07-12T03:01:09.738Z,93.30
2018-07-12T03:06:04.467Z,92.90
2018-07-12T03:10:58.363Z,93.00
2018-07-12T03:15:51.845Z,92.90
2018-07-12T03:20:45.972Z,92.70
2018-07-12T03:25:39.535Z,92.70
2018-07-12T03:30:35.670Z,92.50
2018-07-12T03:35:29.857Z,92.20
2018-07-12T03:40:23.478Z,92.10
2018-07-12T03:45:17.200Z,92.10
2018-07-12T03:50:11.794Z,91.60
2018-07-12T03:55:05.943Z,91.40
2018-07-12T04:00:00.619Z,91.10
2018-07-12T04:04:55.610Z,91.30
2018-07-12T04:09:56.648Z,91.20
2018-07-12T04:14:50.587Z,90.90
2018-07-12T04:19:44.201Z,91.00
2018-07-12T04:29:32.034Z,90.80
2018-07-12T04:34:25.893Z,90.30
2018-07-12T04:44:13.683Z,90.10
2018-07-12T04:49:09.575Z,89.10
2018-07-12T04:54:04.317Z,88.80
2018-07-12T04:58:57.993Z,88.20
2018-07-12T05:03:52.595Z,88.10
2018-07-12T05:08:46.085Z,88.80
2018-07-12T05:13:40.233Z,87.50
2018-07-12T05:18:34.401Z,86.20
2018-07-12T05:23:27.955Z,85.30
2018-07-12T05:28:21.684Z,84.60
2018-07-12T05:33:15.561Z,84.40
2018-07-12T05:43:06.201Z,85.60
2018-07-12T05:48:02.002Z,85.90
2018-07-12T05:52:57.939Z,85.50
2018-07-12T05:57:53.400Z,84.90
2018-07-12T06:02:48.979Z,85.30
2018-07-12T06:07:45.608Z,85.40
2018-07-12T06:12:41.879Z,86.50
2018-07-12T06:17:37.443Z,87.50
2018-07-12T06:22:33.185Z,87.10
2018-07-12T06:27:28.612Z,87.10
2018-07-12T06:32:24.583Z,86.80
2018-07-12T06:37:20.198Z,88.20
2018-07-12T06:42:15.915Z,89.20
2018-07-12T06:47:13.580Z,89.60
2018-07-12T06:52:09.375Z,90.50
2018-07-12T06:57:06.345Z,90.40
2018-07-12T07:02:04.640Z,90.90
2018-07-12T07:07:01.380Z,90.90
2018-07-12T07:12:06.554Z,91.50
2018-07-12T07:17:04.461Z,91.20
2018-07-12T07:22:00.230Z,91.40
2018-07-12T07:26:56.423Z,91.70
2018-07-12T07:31:52.628Z,91.80
2018-07-12T07:36:48.160Z,91.90
2018-07-12T07:41:44.818Z,92.30
2018-07-12T07:46:40.607Z,92.80
2018-07-12T07:51:37.606Z,92.10
2018-07-12T08:01:28.303Z,92.40
2018-07-12T08:06:24.019Z,91.30
2018-07-12T08:11:19.921Z,91.90
2018-07-12T08:16:16.005Z,92.50
2018-07-12T08:21:16.227Z,93.20
2018-07-12T08:26:11.802Z,93.00
2018-07-12T08:31:08.074Z,93.20
2018-07-12T08:36:04.580Z,93.30
2018-07-12T08:41:00.545Z,92.90
2018-07-12T08:45:56.697Z,93.30
2018-07-12T08:50:53.593Z,92.80
2018-07-12T08:55:49.182Z,92.80
2018-07-12T09:00:44.769Z,92.60
2018-07-12T09:05:40.310Z,92.20
2018-07-12T09:10:36.116Z,91.70
2018-07-12T09:15:32.235Z,92.00
2018-07-12T09:20:27.996Z,91.70
2018-07-12T09:25:25.417Z,92.20
2018-07-12T09:30:20.705Z,92.10
2018-07-12T09:35:16.462Z,92.40
2018-07-12T09:40:12.134Z,92.40
2018-07-12T09:45:11.133Z,92.00
2018-07-12T09:50:07.188Z,92.30
2018-07-12T09:55:03.476Z,92.60
2018-07-12T09:59:59.782Z,92.10
2018-07-12T10:09:56.243Z,93.30
2018-07-12T10:14:52.432Z,92.90
2018-07-12T10:19:48.735Z,93.50
2018-07-12T10:29:40.522Z,93.50
2018-07-12T10:34:39.071Z,93.80
2018-07-12T10:39:35.503Z,93.70
2018-07-12T10:44:31.787Z,94.00
2018-07-12T10:49:27.551Z,93.80
2018-07-12T10:54:24.897Z,94.10
2018-07-12T10:59:21.788Z,93.90
2018-07-12T11:04:17.659Z,94.20
2018-07-12T11:14:11.218Z,93.60
2018-07-12T11:19:06.979Z,94.50
2018-07-12T11:24:03.448Z,94.80
2018-07-12T11:28:59.338Z,94.70
2018-07-12T11:33:54.970Z,95.00
2018-07-12T11:38:50.545Z,95.20
2018-07-12T11:43:49.534Z,94.80
2018-07-12T11:48:45.918Z,95.20
2018-07-12T11:53:41.539Z,95.30
2018-07-12T12:03:32.228Z,95.60
2018-07-12T12:08:28.240Z,95.70
2018-07-12T12:13:25.390Z,95.60
2018-07-12T12:18:21.024Z,95.60
2018-07-12T12:23:16.605Z,95.50
2018-07-12T12:28:12.037Z,95.30
2018-07-12T12:33:09.162Z,95.30
2018-07-12T12:38:13.740Z,95.30
2018-07-12T12:43:09.969Z,95.80
2018-07-12T12:48:06.633Z,95.90
2018-07-12T12:53:03.256Z,95.80
2018-07-12T12:58:01.687Z,95.50
2018-07-12T13:03:00.074Z,94.90
2018-07-12T13:07:57.307Z,94.40
2018-07-12T13:12:54.280Z,93.60
2018-07-12T13:17:51.221Z,93.80
2018-07-12T13:22:47.303Z,93.70
2018-07-12T13:27:43.158Z,93.40
2018-07-12T13:32:39.982Z,92.70
2018-07-12T13:37:35.690Z,91.90
2018-07-12T13:42:32.493Z,91.80
2018-07-12T13:47:28.275Z,91.10
2018-07-12T13:52:24.577Z,90.70
2018-07-12T13:57:20.081Z,88.30
2018-07-12T14:02:15.558Z,87.30
2018-07-12T14:07:11.342Z,86.40
2018-07-12T14:12:09.135Z,85.40
2018-07-12T14:17:05.592Z,86.20
2018-07-12T14:26:56.344Z,85.70
2018-07-12T14:31:52.234Z,85.30
2018-07-12T14:36:47.699Z,86.00
2018-07-12T14:41:43.986Z,86.60
2018-07-12T14:46:39.742Z,88.70
2018-07-12T14:51:36.325Z,87.50
2018-07-12T14:56:33.514Z,85.20
2018-07-12T15:01:29.015Z,85.00
2018-07-12T15:06:24.511Z,83.00
2018-07-12T15:11:20.216Z,82.50
2018-07-12T15:16:15.738Z,82.50
2018-07-12T15:26:07.533Z,83.50
2018-07-12T15:31:05.634Z,83.70
2018-07-12T15:36:01.847Z,83.90
2018-07-12T15:40:58.736Z,83.40
2018-07-12T15:45:57.036Z,82.60
2018-07-12T15:50:52.938Z,83.00
2018-07-12T15:55:49.764Z,82.80
2018-07-12T16:00:46.973Z,82.30
2018-07-12T16:05:44.476Z,83.20
2018-07-12T16:10:40.506Z,85.10
2018-07-12T16:15:36.080Z,85.50
2018-07-12T16:20:32.039Z,84.50
2018-07-12T16:25:27.726Z,85.10
2018-07-12T16:30:23.246Z,85.10
2018-07-12T16:35:19.586Z,84.30
2018-07-12T16:40:17.259Z,83.70
2018-07-12T16:45:12.905Z,83.50
2018-07-12T16:50:09.173Z,83.30
2018-07-12T16:55:05.429Z,82.90
2018-07-12T17:00:03.125Z,83.10
2018-07-12T17:04:59.305Z,83.10
2018-07-12T17:09:55.305Z,83.50
2018-07-12T17:14:52.870Z,82.40
2018-07-12T17:19:49.501Z,82.80
2018-07-12T17:24:44.906Z,83.80
2018-07-12T17:29:41.115Z,84.00
2018-07-12T17:34:36.653Z,84.50
2018-07-12T17:39:32.417Z,84.20
2018-07-12T17:44:28.426Z,86.00
2018-07-12T17:49:24.493Z,85.00
2018-07-12T17:54:22.421Z,84.50
2018-07-12T17:59:19.252Z,84.30
2018-07-12T18:04:15.171Z,84.40
2018-07-12T18:09:11.510Z,85.10
2018-07-12T18:14:07.440Z,85.40
2018-07-12T18:19:04.219Z,86.60
2018-07-12T18:23:59.689Z,86.80
2018-07-12T18:33:51.197Z,87.40
2018-07-12T18:38:46.901Z,88.10
2018-07-12T18:43:43.547Z,88.50
2018-07-12T18:48:39.633Z,89.50
2018-07-12T18:53:36.861Z,90.10
2018-07-12T19:03:27.955Z,90.00
2018-07-12T19:08:23.370Z,90.40
2018-07-12T19:13:20.334Z,90.10
2018-07-12T19:18:16.070Z,90.50
2018-07-12T19:23:11.626Z,90.60
2018-07-12T19:28:07.784Z,90.50
2018-07-12T19:33:04.124Z,90.50
2018-07-12T19:37:59.821Z,90.50
2018-07-12T19:42:55.369Z,90.10
2018-07-12T19:47:50.906Z,90.00
2018-07-12T19:52:46.576Z,90.00
2018-07-12T19:57:42.261Z,90.40
2018-07-12T20:02:37.907Z,90.00
2018-07-12T20:07:33.394Z,90.20
2018-07-12T20:12:28.857Z,90.40
2018-07-12T20:22:21.031Z,90.10
2018-07-12T20:27:16.405Z,89.80
2018-07-12T20:32:11.893Z,90.30
2018-07-12T20:37:08.106Z,90.20
2018-07-12T20:42:06.700Z,90.50
2018-07-12T20:47:05.585Z,90.70
2018-07-12T20:52:00.995Z,90.70
2018-07-12T20:57:00.362Z,91.00
2018-07-12T21:06:54.071Z,91.50
2018-07-12T21:11:50.021Z,91.70
2018-07-12T21:16:45.962Z,91.90
2018-07-12T21:21:42.412Z,92.00
2018-07-12T21:26:38.298Z,92.30
2018-07-12T21:31:34.104Z,92.60
2018-07-12T21:36:31.381Z,92.70
2018-07-12T21:41:27.064Z,92.80
2018-07-12T21:46:22.926Z,92.80
2018-07-12T21:51:19.017Z,92.40
2018-07-12T21:56:14.699Z,92.90
2018-07-12T22:01:10.913Z,93.10
2018-07-12T22:06:07.251Z,93.10
2018-07-12T22:11:05.849Z,93.20
2018-07-12T22:16:02.861Z,93.40
2018-07-12T22:20:58.722Z,93.50
2018-07-12T22:30:52.530Z,93.60
2018-07-12T22:35:49.646Z,93.90
2018-07-12T22:40:47.676Z,93.80
2018-07-12T22:45:47.378Z,94.00
2018-07-12T22:50:43.132Z,94.00
2018-07-12T22:55:39.266Z,94.20
2018-07-12T23:00:34.608Z,94.50
2018-07-12T23:05:29.975Z,94.30
2018-07-12T23:10:25.505Z,94.80
2018-07-12T23:15:21.050Z,94.80
2018-07-12T23:20:17.882Z,94.70
2018-07-12T23:25:13.438Z,94.70
2018-07-12T23:30:13.198Z,94.60
2018-07-12T23:35:09.074Z,94.40
2018-07-12T23:40:06.903Z,94.80
2018-07-12T23:45:03.714Z,95.10
2018-07-12T23:50:00.019Z,95.00
2018-07-12T23:54:55.766Z,95.20
2018-07-12T23:59:51.280Z,94.90
